Terminal Aerodrome Forecast
Issued by NWS Shreveport, LA

Home | Current Version | Previous Version | Text Only | Print | Product List | Glossary On
Versions: 1 2 3 4 5 6 7 8 9 10 11 12 13 14 15 16 17 18 19 20 21 22 23 24 25 26
000
FTUS44 KSHV 211153
TAFTXK
TAF
KTXK 211153Z 2112/2212 24005KT P6SM VCSH SCT020 OVC100
      TEMPO 2112/2115 5SM -RA BR BKN006
     FM211500 30008KT P6SM VCSH BKN020
      TEMPO 2115/2119 5SM -RA BR OVC010
     FM212300 35005KT P6SM BKN025
     FM220600 35004KT 4SM BR OVC015=

USA.gov is the U.S. government's official web portal to all federal, state and local government web resources and services.